Time;durP1;ratioP1;P1;durP2;ratioP2;P2;SDS_P1;SDS_P2;PMS_P1;PMS_P2;Temp;Humidity;BMP_temperature;BMP_pressure;BME280_temperature;BME280_humidity;BME280_pressure;Samples;Min_cycle;Max_cycle;Signal;HPM_P1;HPM_P2
2022/05/02 04:00:13;;;;;;;6.13;5.10;;;2.50;96.30;;;;;;6102063;23;20373;31
2022/05/02 04:02:39;;;;;;;7.40;4.27;;;2.60;96.30;;;;;;4916296;29;20455;-78
2022/05/02 04:05:06;;;;;;;6.00;5.13;;;2.60;96.30;;;;;;4919309;29;20780;-78
2022/05/02 04:07:31;;;;;;;7.53;5.23;;;2.70;96.30;;;;;;4918610;29;20423;-76
2022/05/02 04:09:57;;;;;;;14.30;5.03;;;2.80;96.30;;;;;;4919279;29;20428;-77
2022/05/02 04:12:22;;;;;;;6.33;5.50;;;2.90;96.30;;;;;;4919115;29;20214;-79
2022/05/02 04:14:48;;;;;;;11.10;5.60;;;2.90;96.30;;;;;;4919612;29;20207;-76
2022/05/02 04:17:13;;;;;;;8.50;5.47;;;3.00;96.30;;;;;;4923704;29;20200;-77
2022/05/02 04:19:39;;;;;;;6.63;5.27;;;3.10;96.30;;;;;;4920866;29;20203;-79
2022/05/02 04:29:50;;;;;;;6.10;5.50;;;4.90;96.30;;;;;;5159096;23;20492;-76
2022/05/02 04:32:16;;;;;;;14.53;7.00;;;5.90;96.30;;;;;;4976292;28;20434;-74
2022/05/02 04:34:42;;;;;;;6.20;5.10;;;6.90;96.30;;;;;;4976279;28;20642;-74
2022/05/02 04:37:07;;;;;;;7.23;5.00;;;7.60;96.30;;;;;;4976222;28;20261;-75
2022/05/02 04:39:33;;;;;;;8.00;4.77;;;8.20;96.30;;;;;;4975477;28;20196;-75
2022/05/02 04:41:59;;;;;;;7.97;4.93;;;8.90;96.30;;;;;;4975991;28;20221;-75
2022/05/02 04:44:24;;;;;;;8.27;4.90;;;9.30;96.30;;;;;;4976037;28;20827;-75
2022/05/02 04:46:50;;;;;;;7.00;5.00;;;9.40;96.30;;;;;;4976034;28;20197;-74
2022/05/02 04:49:15;;;;;;;6.03;5.40;;;9.70;96.30;;;;;;4975357;28;20178;-74
2022/05/02 04:51:41;;;;;;;7.20;5.20;;;9.50;96.30;;;;;;4958539;28;20190;-77
2022/05/02 04:54:06;;;;;;;5.47;4.83;;;8.90;96.30;;;;;;4975932;28;20198;-73
2022/05/02 04:56:32;;;;;;;7.60;5.00;;;8.30;96.30;;;;;;4975847;28;20268;-74
2022/05/02 04:58:57;;;;;;;5.40;4.63;;;8.20;96.30;;;;;;4974947;28;20170;-75
2022/05/02 05:01:23;;;;;;;9.00;5.50;;;8.00;96.30;;;;;;4957278;28;20198;-80
2022/05/02 05:03:48;;;;;;;8.80;4.87;;;7.60;96.30;;;;;;4975695;28;20204;-73
2022/05/02 05:06:14;;;;;;;10.40;5.60;;;7.20;96.30;;;;;;4975516;28;20202;-73
2022/05/02 05:08:40;;;;;;;5.83;4.67;;;7.10;96.30;;;;;;4975072;28;20229;-73
2022/05/02 05:11:24;;;;;;;9.30;4.90;;;7.00;96.30;;;;;;4974464;28;20249;-72
2022/05/02 05:17:25;;;;;;;5.40;4.00;;;6.70;96.30;;;;;;4974948;28;20753;-72
2022/05/02 05:20:21;;;;;;;5.70;4.50;;;6.60;96.30;;;;;;4975056;28;20402;-74
2022/05/02 05:23:02;;;;;;;4.97;4.17;;;6.60;96.30;;;;;;4975118;28;21362;-72
2022/05/02 05:25:57;;;;;;;5.13;4.50;;;6.60;96.30;;;;;;4957649;28;20420;-72
2022/05/02 05:28:53;;;;;;;6.03;4.63;;;6.70;96.30;;;;;;4957107;28;20489;-77
2022/05/02 05:31:31;;;;;;;5.73;4.47;;;7.50;96.30;;;;;;4974641;28;20430;-73
2022/05/02 05:34:17;;;;;;;5.40;4.40;;;9.10;96.30;;;;;;4974928;28;20421;-74
2022/05/02 05:36:49;;;;;;;15.13;4.93;;;10.20;96.30;;;;;;4974793;28;20390;-73
2022/05/02 05:39:35;;;;;;;6.40;3.80;;;11.30;96.30;;;;;;4974278;28;20402;-76
2022/05/02 05:42:03;;;;;;;4.40;3.63;;;11.90;96.30;;;;;;4974483;28;20429;-73
2022/05/02 05:44:53;;;;;;;4.50;3.60;;;12.30;96.30;;;;;;4974588;28;21040;-78
2022/05/02 05:47:46;;;;;;;6.63;4.10;;;13.30;96.30;;;;;;4973103;28;20441;-74
2022/05/02 05:50:23;;;;;;;6.20;3.50;;;14.20;96.30;;;;;;4974692;28;20421;-73
2022/05/02 05:53:02;;;;;;;9.90;4.00;;;14.80;96.30;;;;;;4973799;28;20409;-77
2022/05/02 05:55:39;;;;;;;3.70;3.27;;;14.80;94.60;;;;;;4974830;28;20916;-76
2022/05/02 05:58:26;;;;;;;7.40;3.63;;;15.30;95.60;;;;;;4974167;28;20433;-73
2022/05/02 06:01:01;;;;;;;8.93;4.03;;;15.10;95.80;;;;;;4974299;28;20425;-77
2022/05/02 06:03:34;;;;;;;15.53;4.13;;;16.30;91.10;;;;;;4974533;28;20456;-74
2022/05/02 06:06:00;;;;;;;6.20;3.90;;;16.90;88.10;;;;;;4974481;28;20386;-77
2022/05/02 06:08:29;;;;;;;8.90;3.90;;;17.60;85.30;;;;;;4973953;28;20501;-76
2022/05/02 06:10:58;;;;;;;7.30;3.60;;;18.00;84.40;;;;;;4974371;28;20852;-74
2022/05/02 06:13:29;;;;;;;6.57;3.93;;;18.00;82.30;;;;;;4974543;28;20418;-74
2022/05/02 06:18:42;;;;;;;7.10;3.73;;;17.90;83.40;;;;;;4973912;28;20405;-74
2022/05/02 06:21:08;;;;;;;4.47;3.77;;;17.10;85.90;;;;;;4974256;28;21045;-74
2022/05/02 06:23:52;;;;;;;5.67;3.60;;;16.90;86.80;;;;;;4974186;28;20473;-74
2022/05/02 06:26:22;;;;;;;4.50;4.10;;;17.20;86.50;;;;;;4974298;28;20164;-74
2022/05/02 06:28:50;;;;;;;6.07;3.77;;;17.60;86.30;;;;;;4973541;28;20440;-74
2022/05/02 06:31:26;;;;;;;4.40;3.80;;;18.60;85.20;;;;;;4974097;28;21185;-74
2022/05/02 06:33:52;;;;;;;7.73;4.00;;;19.40;83.80;;;;;;4974139;28;20405;-74
2022/05/02 06:36:42;;;;;;;4.47;3.80;;;19.70;82.50;;;;;;4974037;28;20500;-74
2022/05/02 06:39:45;;;;;;;5.57;4.50;;;19.90;81.70;;;;;;4973541;28;20286;-74
2022/05/02 06:42:30;;;;;;;5.70;4.00;;;20.10;79.10;;;;;;4973881;28;20467;-75
2022/05/02 06:45:27;;;;;;;4.80;4.30;;;19.20;80.20;;;;;;4973864;28;20445;-74
2022/05/02 06:48:20;;;;;;;9.27;4.50;;;19.80;75.80;;;;;;4967534;28;20568;-72
2022/05/02 06:50:53;;;;;;;8.80;4.60;;;20.30;73.30;;;;;;4973799;28;20425;-72
2022/05/02 06:53:46;;;;;;;6.40;4.27;;;20.30;74.60;;;;;;4973793;28;20401;-72
2022/05/02 06:56:29;;;;;;;5.27;4.10;;;20.50;74.60;;;;;;4973681;28;20413;-74
2022/05/02 06:59:11;;;;;;;4.67;4.27;;;20.50;77.20;;;;;;4973207;28;20961;-72
2022/05/02 07:02:10;;;;;;;10.17;4.47;;;19.50;78.00;;;;;;4973567;28;20437;-73
2022/05/02 07:04:49;;;;;;;5.17;4.33;;;19.40;78.70;;;;;;4972723;28;20460;-72
2022/05/02 07:07:30;;;;;;;4.77;4.23;;;20.90;75.50;;;;;;4973774;28;20397;-72
2022/05/02 07:10:17;;;;;;;6.30;5.10;;;21.10;76.60;;;;;;4973470;28;20389;-72
2022/05/02 07:13:02;;;;;;;4.37;3.97;;;21.20;75.50;;;;;;4973469;28;20761;-73
2022/05/02 07:15:40;;;;;;;9.30;4.73;;;20.90;76.80;;;;;;4973504;28;20528;-72
2022/05/02 07:18:10;;;;;;;6.00;5.20;;;21.50;77.20;;;;;;4973062;28;20944;-73
2022/05/02 07:20:54;;;;;;;7.40;4.70;;;21.80;75.80;;;;;;4973356;28;20471;-72
2022/05/02 07:23:53;;;;;;;6.97;4.97;;;21.60;74.20;;;;;;4972857;28;20445;-73
2022/05/02 07:26:21;;;;;;;6.97;5.30;;;22.00;74.20;;;;;;4973318;28;20445;-74
2022/05/02 07:28:48;;;;;;;13.53;4.93;;;22.60;74.70;;;;;;4972634;28;20421;-76
2022/05/02 07:31:22;;;;;;;7.40;4.63;;;21.70;74.50;;;;;;4973163;28;20432;-73
2022/05/02 07:33:50;;;;;;;7.07;4.60;;;21.60;72.30;;;;;;4973310;28;20413;-74
2022/05/02 07:36:19;;;;;;;6.33;4.70;;;21.10;76.30;;;;;;4973276;28;20413;-74
2022/05/02 07:38:56;;;;;;;10.03;4.97;;;20.90;76.40;;;;;;4972661;28;21135;-73
2022/05/02 07:41:26;;;;;;;11.10;4.90;;;21.30;76.50;;;;;;4973218;28;20963;-73
2022/05/02 07:43:58;;;;;;;9.00;5.00;;;21.80;74.20;;;;;;4973122;28;20453;-73
2022/05/02 07:46:31;;;;;;;9.40;4.77;;;21.90;74.00;;;;;;4955897;28;20650;-74
2022/05/02 07:48:59;;;;;;;9.53;5.47;;;23.00;72.80;;;;;;4972678;28;20405;-77
2022/05/02 07:51:26;;;;;;;7.70;4.87;;;21.50;72.60;;;;;;4973099;28;20520;-74
2022/05/02 07:53:53;;;;;;;7.43;4.53;;;21.80;73.60;;;;;;4955760;28;20924;-74
2022/05/02 07:56:23;;;;;;;6.33;4.93;;;22.20;71.20;;;;;;4955789;28;20431;-74
2022/05/02 07:58:51;;;;;;;6.70;5.00;;;22.30;73.20;;;;;;4972555;28;20428;-74
2022/05/02 08:01:17;;;;;;;6.07;5.00;;;21.50;71.70;;;;;;4972684;28;20468;-74
2022/05/02 08:03:43;;;;;;;7.57;5.33;;;21.10;72.90;;;;;;4972989;28;20523;-74
2022/05/02 08:06:35;;;;;;;8.20;6.30;;;21.90;73.00;;;;;;4972957;28;20911;-74
2022/05/02 08:09:15;;;;;;;6.53;5.07;;;21.60;73.60;;;;;;4972522;28;20166;-74
2022/05/02 08:11:54;;;;;;;6.60;5.30;;;21.80;72.20;;;;;;4972895;28;20461;-74
2022/05/02 08:14:27;;;;;;;10.30;5.30;;;20.50;77.80;;;;;;4972904;28;20408;-77
2022/05/02 08:17:11;;;;;;;7.97;6.00;;;20.40;79.70;;;;;;4972947;28;20406;-74
2022/05/02 08:20:06;;;;;;;10.77;5.50;;;20.70;77.10;;;;;;4972418;28;20734;-74
2022/05/02 08:28:32;;;;;;;8.87;6.10;;;21.10;73.90;;;;;;4972213;28;20549;-74
2022/05/02 08:31:17;;;;;;;10.47;7.00;;;20.10;76.40;;;;;;4972746;28;20428;-74
2022/05/02 08:34:04;;;;;;;10.20;6.43;;;20.10;78.50;;;;;;4972859;28;20405;-74
2022/05/02 08:36:42;;;;;;;11.80;7.70;;;20.10;75.20;;;;;;4975805;28;20417;-74
2022/05/02 08:39:10;;;;;;;9.13;6.10;;;19.50;77.50;;;;;;4975848;28;20405;-73
2022/05/02 08:41:56;;;;;;;11.97;6.50;;;19.90;75.70;;;;;;4976123;28;20436;-74
2022/05/02 08:44:54;;;;;;;9.27;6.37;;;20.10;77.70;;;;;;4976140;28;20821;-74
2022/05/02 08:47:56;;;;;;;9.27;7.60;;;20.40;77.30;;;;;;4955664;28;20433;-75
2022/05/02 08:50:28;;;;;;;9.70;6.57;;;19.70;75.60;;;;;;4975932;28;20406;-73
2022/05/02 08:53:19;;;;;;;12.30;6.70;;;19.00;77.80;;;;;;4976019;28;20418;-75
2022/05/02 08:55:56;;;;;;;12.37;6.63;;;19.40;81.60;;;;;;4975959;28;20398;-73
2022/05/02 08:58:48;;;;;;;12.37;6.70;;;19.50;78.00;;;;;;4975319;28;20418;-76
2022/05/02 09:01:36;;;;;;;13.83;7.07;;;19.00;79.10;;;;;;4975715;28;20927;-76
2022/05/02 09:04:51;;;;;;;7.97;6.43;;;19.60;78.70;;;;;;4975688;28;20561;-76
2022/05/02 09:07:42;;;;;;;11.37;6.50;;;20.50;76.60;;;;;;4975612;28;20398;-73
2022/05/02 09:10:20;;;;;;;10.30;6.93;;;19.80;75.00;;;;;;4975670;28;20390;-76
2022/05/02 09:13:10;;;;;;;9.70;6.70;;;19.20;77.50;;;;;;4975658;28;20393;-78
2022/05/02 09:16:07;;;;;;;11.17;6.73;;;19.40;79.00;;;;;;4975488;28;20418;-77
2022/05/02 09:18:50;;;;;;;9.17;6.90;;;19.20;77.30;;;;;;4975024;28;20489;-75
2022/05/02 09:21:49;;;;;;;8.77;6.63;;;18.60;78.30;;;;;;4975371;28;20430;-73
2022/05/02 09:24:49;;;;;;;10.07;7.17;;;17.60;81.30;;;;;;4975445;28;20481;-73
2022/05/02 09:27:35;;;;;;;11.07;6.33;;;18.20;80.70;;;;;;4975449;28;20394;-73
2022/05/02 09:30:17;;;;;;;10.43;7.17;;;18.90;78.80;;;;;;4975362;28;20457;-73
2022/05/02 09:32:54;;;;;;;14.03;6.87;;;19.30;77.70;;;;;;4975276;28;20394;-76
2022/05/02 09:35:32;;;;;;;11.10;6.70;;;19.80;79.20;;;;;;4975185;28;20446;-74
2022/05/02 09:37:59;;;;;;;8.83;6.67;;;19.60;78.50;;;;;;4974664;28;20390;-73
2022/05/02 09:40:36;;;;;;;9.23;6.53;;;18.90;78.30;;;;;;4975067;28;20774;-74
2022/05/02 09:49:33;;;;;;;9.80;6.70;;;18.70;78.20;;;;;;4975053;28;20469;-73
2022/05/02 09:49:48;;;;;;;11.83;6.80;;;18.60;79.20;;;;;;4974725;28;20397;-73
2022/05/02 09:52:27;;;;;;;9.30;7.20;;;18.80;78.50;;;;;;4974848;28;20426;-77
2022/05/02 09:58:16;;;;;;;12.43;6.90;;;18.90;78.10;;;;;;4974318;28;20448;-73
2022/05/02 10:01:11;;;;;;;8.40;7.47;;;18.60;78.60;;;;;;4974750;28;20433;-76
2022/05/02 10:04:01;;;;;;;14.00;7.40;;;18.50;79.30;;;;;;4974640;28;20504;-73
2022/05/02 10:06:31;;;;;;;10.53;6.97;;;19.30;77.90;;;;;;4974658;28;20440;-73
2022/05/02 10:09:07;;;;;;;8.13;6.50;;;19.20;77.30;;;;;;4974342;28;20759;-73
2022/05/02 10:12:00;;;;;;;9.63;7.10;;;19.00;77.50;;;;;;4974408;28;20433;-73
2022/05/02 10:14:56;;;;;;;12.77;6.47;;;19.00;77.00;;;;;;4974973;28;20446;-75
2022/05/02 10:17:58;;;;;;;7.30;6.20;;;19.00;79.80;;;;;;4975306;28;20405;-77
2022/05/02 10:20:37;;;;;;;11.10;6.90;;;19.30;79.30;;;;;;4926742;28;20428;-77
2022/05/02 10:23:15;;;;;;;8.87;5.90;;;20.00;76.50;;;;;;4974645;28;20413;-75
2022/05/02 10:26:01;;;;;;;9.00;6.47;;;19.80;76.80;;;;;;4974341;28;20504;-77
2022/05/02 10:28:51;;;;;;;8.90;6.60;;;19.20;76.70;;;;;;4974263;28;20425;-74
2022/05/02 10:31:25;;;;;;;11.00;6.43;;;18.70;80.00;;;;;;4956783;28;20469;-75
2022/05/02 10:33:53;;;;;;;7.67;6.37;;;18.90;80.80;;;;;;4974053;28;20435;-76
2022/05/02 10:36:27;;;;;;;10.03;7.33;;;18.60;81.00;;;;;;4974054;28;20414;-73
2022/05/02 10:39:01;;;;;;;13.13;6.70;;;18.50;80.50;;;;;;4973804;28;20828;-73
2022/05/02 10:41:37;;;;;;;8.80;6.27;;;18.60;80.90;;;;;;4974225;28;20468;-72
2022/05/02 10:44:04;;;;;;;8.00;6.83;;;18.60;80.70;;;;;;4973948;28;20486;-72
2022/05/02 10:46:33;;;;;;;8.57;6.50;;;18.00;83.30;;;;;;4973881;28;20418;-74
2022/05/02 10:49:31;;;;;;;8.40;5.77;;;18.20;83.10;;;;;;4973313;28;20410;-72
2022/05/02 10:52:12;;;;;;;6.80;5.70;;;18.10;83.40;;;;;;4941138;28;20453;-72
2022/05/02 10:54:56;;;;;;;7.87;6.67;;;18.10;84.30;;;;;;4973862;28;20406;-73
2022/05/02 10:57:41;;;;;;;9.40;6.40;;;17.90;83.70;;;;;;4973128;28;20477;-72
2022/05/02 11:00:10;;;;;;;9.80;6.97;;;17.40;84.70;;;;;;4973718;28;20868;-72
2022/05/02 11:03:00;;;;;;;8.93;6.30;;;17.00;86.50;;;;;;4973505;28;20442;-72
2022/05/02 11:05:33;;;;;;;7.10;6.00;;;17.20;86.80;;;;;;4956332;28;20430;-72
2022/05/02 11:08:18;;;;;;;8.87;6.53;;;17.10;88.40;;;;;;4973079;28;20413;-72
2022/05/02 11:10:50;;;;;;;9.70;5.80;;;17.20;88.00;;;;;;4973221;28;20441;-72
2022/05/02 11:13:42;;;;;;;9.67;6.90;;;17.20;87.10;;;;;;4973592;28;20394;-72
2022/05/02 11:16:24;;;;;;;10.20;6.17;;;16.90;87.30;;;;;;4973458;28;20430;-72
2022/05/02 11:22:25;;;;;;;10.57;6.03;;;16.70;88.00;;;;;;4973558;28;20948;-72
2022/05/02 11:25:23;;;;;;;6.70;5.77;;;16.70;86.80;;;;;;4973354;28;20454;-73
2022/05/02 11:28:23;;;;;;;8.70;6.90;;;16.60;85.90;;;;;;4972719;28;20780;-73
2022/05/02 11:31:22;;;;;;;7.60;6.17;;;16.50;86.90;;;;;;4973334;28;20438;-73
2022/05/02 11:34:02;;;;;;;8.67;6.57;;;16.90;87.60;;;;;;4967886;28;20458;-72
2022/05/02 11:36:32;;;;;;;10.60;7.00;;;17.10;86.50;;;;;;4973307;28;20425;-72
2022/05/02 11:39:08;;;;;;;10.17;6.70;;;17.30;85.90;;;;;;4955259;28;20489;-72
2022/05/02 11:41:41;;;;;;;8.23;6.47;;;17.40;85.50;;;;;;4955747;28;20441;-73
2022/05/02 11:44:11;;;;;;;8.40;6.80;;;17.70;85.70;;;;;;4955799;28;20453;-75
2022/05/02 11:47:02;;;;;;;12.90;7.43;;;17.90;85.20;;;;;;4972639;28;20958;-72
2022/05/02 11:49:52;;;;;;;8.77;7.70;;;17.20;84.90;;;;;;4972600;28;20398;-73
2022/05/02 11:52:29;;;;;;;18.63;6.80;;;17.30;86.90;;;;;;4955726;28;20441;-76
2022/05/02 11:54:57;;;;;;;9.10;7.73;;;17.20;87.80;;;;;;4973218;28;20464;-72
2022/05/02 11:57:28;;;;;;;8.00;6.40;;;17.50;87.10;;;;;;4973110;28;20414;-73
2022/05/02 11:59:57;;;;;;;11.30;7.00;;;17.60;87.50;;;;;;4973072;28;20402;-74
2022/05/02 12:02:38;;;;;;;8.27;6.30;;;18.00;86.50;;;;;;4972858;28;20433;-72
2022/05/02 12:05:21;;;;;;;9.67;7.07;;;17.30;87.00;;;;;;4972963;28;20480;-74
2022/05/02 12:08:02;;;;;;;7.50;5.80;;;17.60;91.10;;;;;;4972537;28;20921;-72
2022/05/02 12:10:36;;;;;;;17.10;6.47;;;17.90;86.50;;;;;;4976214;28;20449;-72
2022/05/02 12:13:04;;;;;;;9.10;6.80;;;17.80;84.90;;;;;;4976693;28;20823;-72
2022/05/02 12:15:30;;;;;;;8.13;6.00;;;18.00;84.40;;;;;;4976663;28;20413;-72
2022/05/02 12:18:06;;;;;;;10.30;6.20;;;18.10;84.90;;;;;;4976120;28;20413;-72
2022/05/02 12:20:42;;;;;;;6.20;5.53;;;18.10;85.50;;;;;;4976523;28;20661;-72
2022/05/02 12:23:16;;;;;;;10.23;6.33;;;18.30;85.10;;;;;;4976537;28;20386;-73
2022/05/02 12:25:54;;;;;;;7.50;6.80;;;18.50;84.00;;;;;;4976530;28;20390;-73
2022/05/02 12:28:38;;;;;;;9.60;7.03;;;17.90;83.50;;;;;;4975824;28;20444;-72
2022/05/02 12:31:06;;;;;;;8.90;6.97;;;17.90;84.20;;;;;;4976319;28;20437;-73
2022/05/02 12:33:34;;;;;;;15.40;6.43;;;17.80;83.50;;;;;;4976380;28;20432;-73
2022/05/02 12:36:00;;;;;;;16.70;6.67;;;18.00;84.00;;;;;;4976302;28;20426;-73
2022/05/02 12:38:28;;;;;;;17.00;7.20;;;18.30;84.00;;;;;;4975781;28;20420;-73
2022/05/02 12:41:01;;;;;;;7.10;5.93;;;18.40;82.20;;;;;;4976074;28;20434;-74
2022/05/02 12:43:40;;;;;;;9.60;6.87;;;18.20;82.40;;;;;;4976157;28;20453;-73
2022/05/02 12:46:07;;;;;;;7.60;6.03;;;18.50;83.20;;;;;;4976087;28;20754;-73
2022/05/02 12:48:39;;;;;;;8.53;5.60;;;18.90;80.80;;;;;;4975629;28;20894;-73
2022/05/02 12:51:14;;;;;;;9.83;6.67;;;18.50;80.60;;;;;;4975855;28;20422;-73
2022/05/02 12:56:23;;;;;;;7.83;6.50;;;18.80;80.10;;;;;;4975964;28;20452;-76
2022/05/02 13:01:44;;;;;;;9.30;6.07;;;18.80;77.80;;;;;;4975646;28;20285;-74
2022/05/02 13:04:18;;;;;;;9.33;6.37;;;18.90;78.70;;;;;;4975571;28;20601;-75
2022/05/02 13:06:45;;;;;;;6.57;5.93;;;18.80;77.80;;;;;;4975649;28;20421;-76
2022/05/02 13:09:14;;;;;;;10.10;5.77;;;19.10;78.50;;;;;;4975053;28;20773;-73
2022/05/02 13:11:40;;;;;;;17.53;6.40;;;19.40;80.20;;;;;;4975623;28;20566;-77
2022/05/02 13:14:06;;;;;;;7.00;6.17;;;19.20;81.40;;;;;;4972574;28;20430;-78
2022/05/02 13:16:42;;;;;;;6.70;5.80;;;19.40;80.10;;;;;;4973101;28;20193;-72
2022/05/02 13:19:07;;;;;;;6.90;6.20;;;19.70;78.70;;;;;;4931916;28;20449;-76
2022/05/02 13:21:34;;;;;;;11.67;6.90;;;19.70;78.50;;;;;;4938767;28;20464;-76
2022/05/02 13:24:07;;;;;;;8.43;5.80;;;19.60;79.80;;;;;;4968633;28;20194;-76
2022/05/02 13:26:37;;;;;;;8.53;5.87;;;19.80;79.70;;;;;;4964808;28;20448;-75
2022/05/02 13:29:40;;;;;;;16.40;5.40;;;19.70;78.80;;;;;;4966585;28;20440;-77
2022/05/02 13:32:15;;;;;;;11.00;5.57;;;19.90;78.30;;;;;;4967279;28;20440;-76
2022/05/02 13:34:50;;;;;;;7.87;6.17;;;19.40;76.70;;;;;;4956306;28;20568;-76
2022/05/02 13:37:38;;;;;;;14.80;6.77;;;19.10;77.90;;;;;;4969063;28;20416;-75
2022/05/02 13:40:09;;;;;;;10.83;5.80;;;19.20;79.50;;;;;;4960908;28;20418;-75
2022/05/02 13:42:36;;;;;;;9.30;6.40;;;19.60;80.20;;;;;;4973955;28;20450;-75
2022/05/02 13:45:04;;;;;;;6.67;5.63;;;19.50;79.30;;;;;;4963819;28;20511;-77
2022/05/02 13:47:43;;;;;;;6.97;6.27;;;19.10;79.90;;;;;;4943275;28;20989;-73
2022/05/02 13:50:12;;;;;;;12.43;5.73;;;18.70;79.80;;;;;;4958477;28;20461;-77
2022/05/02 13:52:52;;;;;;;6.30;5.67;;;18.50;78.90;;;;;;4970783;28;20471;-76
2022/05/02 13:55:49;;;;;;;7.53;5.73;;;19.10;80.70;;;;;;4971648;28;20830;-77
2022/05/02 13:58:42;;;;;;;17.03;6.73;;;19.20;79.30;;;;;;4961617;28;20813;-76
2022/05/02 14:01:28;;;;;;;9.93;6.00;;;19.20;79.80;;;;;;4966692;28;20515;-75
2022/05/02 14:07:00;;;;;;;9.10;5.50;;;19.90;78.50;;;;;;4963740;28;20428;-77
2022/05/02 14:09:47;;;;;;;10.83;5.63;;;20.60;77.50;;;;;;4956819;28;20910;-78
2022/05/02 14:12:21;;;;;;;6.93;4.93;;;20.40;77.70;;;;;;4956895;28;20444;-77
2022/05/02 14:15:09;;;;;;;6.63;5.30;;;20.10;78.50;;;;;;4958363;28;20429;-75
2022/05/02 14:17:38;;;;;;;7.70;6.30;;;19.80;79.00;;;;;;4960279;28;20446;-78
2022/05/02 14:20:13;;;;;;;11.77;6.00;;;19.20;78.40;;;;;;4943795;28;20438;-78
2022/05/02 14:22:40;;;;;;;5.60;4.90;;;19.50;77.70;;;;;;4955708;29;20424;-77
2022/05/02 14:25:08;;;;;;;8.73;5.40;;;19.20;78.60;;;;;;4966533;28;20553;-75
2022/05/02 14:27:34;;;;;;;10.73;5.37;;;18.90;79.20;;;;;;4962128;28;20422;-78
2022/05/02 14:30:06;;;;;;;9.67;6.43;;;18.70;79.30;;;;;;4970342;28;20895;-77
2022/05/02 14:32:44;;;;;;;8.13;5.60;;;18.70;79.20;;;;;;4973455;28;20252;-77
2022/05/02 14:35:24;;;;;;;17.77;5.40;;;18.90;78.20;;;;;;4956151;28;20465;-77
2022/05/02 14:37:53;;;;;;;6.03;5.40;;;19.40;77.30;;;;;;4973294;28;20422;-77
2022/05/02 14:40:18;;;;;;;5.10;4.60;;;19.50;76.00;;;;;;4974317;28;20936;-78
2022/05/02 14:42:44;;;;;;;5.50;4.33;;;19.70;76.50;;;;;;4974925;28;20418;-76
2022/05/02 14:45:11;;;;;;;5.90;4.40;;;19.60;76.70;;;;;;4975428;28;20206;-77
2022/05/02 14:47:38;;;;;;;9.80;6.40;;;20.00;76.10;;;;;;4974678;28;20178;-77
2022/05/02 14:50:04;;;;;;;6.67;5.20;;;19.90;75.10;;;;;;4954404;28;20452;-76
2022/05/02 14:52:36;;;;;;;6.03;5.43;;;19.40;77.30;;;;;;4951024;28;20450;-76
2022/05/02 14:55:04;;;;;;;7.80;5.73;;;19.20;76.00;;;;;;4962105;28;20410;-77
2022/05/02 14:57:31;;;;;;;9.03;5.90;;;18.70;77.20;;;;;;4967431;28;20448;-77
2022/05/02 15:00:03;;;;;;;7.13;5.30;;;18.30;81.50;;;;;;4973613;28;20414;-76
2022/05/02 15:02:32;;;;;;;9.00;5.00;;;18.20;79.90;;;;;;4973479;28;20955;-77
2022/05/02 15:05:03;;;;;;;7.43;5.60;;;18.00;79.70;;;;;;4956928;28;20469;-77
2022/05/02 15:07:41;;;;;;;9.83;5.00;;;18.10;79.80;;;;;;4956039;28;20817;-78
2022/05/02 15:10:27;;;;;;;6.17;4.60;;;17.90;79.80;;;;;;4964890;28;20452;-77
2022/05/02 15:13:36;;;;;;;6.60;5.33;;;18.10;79.60;;;;;;4963777;28;20413;-75
2022/05/02 15:16:25;;;;;;;14.93;5.30;;;18.20;83.50;;;;;;4963524;28;20405;-76
2022/05/02 15:22:09;;;;;;;7.17;5.73;;;18.10;81.40;;;;;;4963539;28;20993;-77
2022/05/02 15:25:07;;;;;;;6.83;4.70;;;17.90;85.70;;;;;;4961436;28;20481;-76
2022/05/02 15:39:26;;;;;;;7.87;4.80;;;18.40;78.90;;;;;;4973576;28;20472;-79
2022/05/02 15:41:55;;;;;;;7.27;4.70;;;18.40;78.60;;;;;;4965504;28;20425;-77
2022/05/02 15:44:23;;;;;;;6.90;5.07;;;18.30;78.30;;;;;;4965581;28;20516;-79
2022/05/02 15:47:05;;;;;;;6.47;4.70;;;18.30;78.80;;;;;;4958071;29;20414;-78
2022/05/02 15:49:46;;;;;;;4.97;4.30;;;18.40;78.90;;;;;;4958034;29;20422;-77
2022/05/02 15:52:17;;;;;;;5.43;4.93;;;18.80;77.20;;;;;;4953380;28;20858;-76
2022/05/02 15:54:52;;;;;;;9.97;4.50;;;18.60;77.80;;;;;;4968459;28;20426;-77
2022/05/02 15:57:26;;;;;;;8.17;4.73;;;19.00;76.60;;;;;;4965545;28;20454;-77
2022/05/02 16:00:14;;;;;;;5.83;4.70;;;18.80;77.20;;;;;;4966909;28;20905;-76
2022/05/02 16:02:43;;;;;;;5.17;4.30;;;18.90;77.60;;;;;;4950857;28;20955;-76
2022/05/02 16:05:14;;;;;;;8.90;5.10;;;18.70;77.60;;;;;;4942492;28;20476;-76
2022/05/02 16:10:34;;;;;;;5.50;4.50;;;18.50;78.50;;;;;;4977344;28;20396;-76
2022/05/02 16:13:00;;;;;;;6.50;4.43;;;18.70;78.30;;;;;;4969757;28;20445;-78
2022/05/02 16:15:26;;;;;;;5.07;4.57;;;18.70;78.20;;;;;;4942992;29;20433;-75
2022/05/02 16:17:55;;;;;;;5.83;4.80;;;18.20;78.80;;;;;;4967012;29;20167;-76
2022/05/02 16:45:40;;;;;;;5.00;4.47;;;17.50;81.20;;;;;;4954543;29;20520;-74
2022/05/02 16:48:08;;;;;;;5.67;4.50;;;17.50;83.20;;;;;;4955340;29;20430;-75
2022/05/02 16:50:40;;;;;;;7.30;5.40;;;17.60;88.60;;;;;;4956190;28;20944;-74
2022/05/02 16:53:07;;;;;;;6.13;4.93;;;17.40;83.60;;;;;;4955722;28;20497;-74
2022/05/02 16:55:35;;;;;;;4.63;4.10;;;17.20;83.30;;;;;;4953991;28;20411;-76
2022/05/02 16:58:18;;;;;;;8.80;4.70;;;17.00;82.70;;;;;;4954731;28;20414;-74
2022/05/02 17:04:07;;;;;;;6.80;4.30;;;17.10;82.50;;;;;;4919010;29;20570;-77
2022/05/02 17:06:34;;;;;;;7.70;4.20;;;17.00;83.10;;;;;;4936868;29;20883;-75
2022/05/02 17:09:14;;;;;;;8.50;4.93;;;17.00;82.90;;;;;;4937318;29;20498;-76
2022/05/02 18:38:21;;;;;;;6.00;3.90;;;13.00;96.30;;;;;;4880951;26;20517;-74
2022/05/02 18:40:52;;;;;;;4.47;4.07;;;12.70;96.30;;;;;;4954406;28;20458;-74
2022/05/02 18:43:23;;;;;;;8.23;4.50;;;12.50;96.30;;;;;;4954880;29;20423;-75
2022/05/02 18:54:35;;;;;;;3.80;3.50;;;12.00;96.30;;;;;;4939472;29;20452;-74
2022/05/02 18:57:11;;;;;;;4.70;3.83;;;11.90;96.30;;;;;;4935524;29;20466;-75
2022/05/02 18:59:40;;;;;;;3.80;3.27;;;11.60;96.30;;;;;;4918066;29;20433;-75
2022/05/02 19:23:32;;;;;;;5.47;4.97;;;10.40;96.30;;;;;;5008568;23;20488;-74
2022/05/02 19:29:58;;;;;;;5.63;4.73;;;10.20;96.30;;;;;;4892602;29;20561;-75
2022/05/02 19:32:25;;;;;;;9.73;4.10;;;10.10;96.30;;;;;;4871003;29;22280;-78
2022/05/02 19:40:48;;;;;;;4.20;3.37;;;10.00;96.30;;;;;;4945396;29;20435;-76
2022/05/02 19:43:16;;;;;;;6.33;3.50;;;9.90;96.30;;;;;;4953787;29;20762;-77
2022/05/02 19:45:49;;;;;;;3.63;3.33;;;9.90;96.30;;;;;;4953666;29;20415;-78
2022/05/02 19:48:15;;;;;;;3.40;3.10;;;9.80;96.30;;;;;;4953481;29;20889;-77
2022/05/02 19:50:45;;;;;;;3.73;3.20;;;9.50;96.30;;;;;;4953500;29;20441;-77
2022/05/02 19:53:10;;;;;;;3.60;3.30;;;9.50;96.30;;;;;;4953411;29;20858;-77
2022/05/02 19:55:38;;;;;;;8.33;3.30;;;9.40;96.30;;;;;;4953635;29;20487;-78
2022/05/02 19:58:07;;;;;;;4.00;3.37;;;9.20;96.30;;;;;;4953253;29;20719;-77
2022/05/02 20:00:33;;;;;;;5.70;3.57;;;9.00;96.30;;;;;;4953459;29;20828;-76
2022/05/02 20:03:00;;;;;;;4.53;3.60;;;8.80;96.30;;;;;;4953556;29;20418;-76
2022/05/02 20:05:26;;;;;;;4.50;3.63;;;8.80;96.30;;;;;;4936034;29;20465;-76
2022/05/02 20:07:53;;;;;;;3.70;3.37;;;8.80;96.30;;;;;;4952989;29;20414;-77
2022/05/02 20:10:19;;;;;;;8.37;4.37;;;8.80;96.30;;;;;;4953362;29;20469;-76
2022/05/02 20:12:44;;;;;;;6.40;3.80;;;8.80;96.30;;;;;;4953349;29;20907;-75
2022/05/02 20:15:14;;;;;;;4.47;4.07;;;8.80;96.30;;;;;;4953415;29;20421;-77
2022/05/02 20:17:42;;;;;;;6.10;4.60;;;8.70;96.30;;;;;;4935607;29;20735;-77
2022/05/02 20:20:09;;;;;;;4.43;4.03;;;8.80;96.30;;;;;;4953315;29;20418;-77
2022/05/02 20:22:37;;;;;;;6.63;4.63;;;9.00;96.30;;;;;;4935895;29;20525;-78
2022/05/02 20:25:07;;;;;;;4.57;4.13;;;9.20;96.30;;;;;;4953279;29;20468;-78
2022/05/02 20:27:37;;;;;;;21.27;11.10;;;9.30;96.30;;;;;;4935992;29;20422;-79
2022/05/02 20:30:03;;;;;;;12.37;8.90;;;9.40;96.30;;;;;;4954687;28;20922;-78
2022/05/02 20:37:59;;;;;;;4.90;4.23;;;9.30;96.30;;;;;;4958038;29;20469;-79
2022/05/02 20:40:26;;;;;;;6.53;5.60;;;9.40;96.30;;;;;;4958136;29;20465;-80
2022/05/02 20:42:52;;;;;;;62.87;42.07;;;9.50;96.30;;;;;;4957912;29;20422;-79
2022/05/02 20:45:23;;;;;;;27.33;20.27;;;9.50;96.30;;;;;;4938057;29;20453;-76
2022/05/02 20:47:58;;;;;;;16.17;11.13;;;9.60;96.30;;;;;;4954512;29;20175;-78
2022/05/02 20:50:25;;;;;;;19.70;17.60;;;9.70;96.30;;;;;;4938278;29;20473;-77
2022/05/02 20:52:53;;;;;;;24.87;20.87;;;9.70;96.30;;;;;;4955263;29;20414;-78
2022/05/02 20:55:20;;;;;;;27.57;21.60;;;9.90;96.30;;;;;;4955614;29;20425;-78
2022/05/02 20:57:46;;;;;;;20.30;15.40;;;10.10;96.30;;;;;;4955060;29;20840;-79
2022/05/02 21:00:14;;;;;;;26.03;16.30;;;10.20;96.30;;;;;;4957409;29;20503;-79
2022/05/02 21:02:44;;;;;;;81.83;59.97;;;10.20;96.30;;;;;;4939873;29;20438;-79
2022/05/02 21:05:10;;;;;;;9.63;8.63;;;10.20;96.30;;;;;;4939767;29;20490;-78